Time;durP1;ratioP1;P1;durP2;ratioP2;P2;SDS_P1;SDS_P2;PMS_P1;PMS_P2;Temp;Humidity;BMP_temperature;BMP_pressure;BME280_temperature;BME280_humidity;BME280_pressure;Samples;Min_cycle;Max_cycle;Signal;HPM_P1;HPM_P2
2022/12/07 00:00:15;;;;;;;;;;;;;;;6.65;100.00;94449.13;5092888;28;19928;-56
2022/12/07 00:02:40;;;;;;;;;;;;;;;6.67;100.00;94449.00;5092977;28;19958;-56
2022/12/07 00:05:05;;;;;;;;;;;;;;;6.66;100.00;94443.16;5092897;28;19920;-55
2022/12/07 00:07:31;;;;;;;;;;;;;;;6.73;100.00;94463.69;5074587;28;19999;-54
2022/12/07 00:09:56;;;;;;;;;;;;;;;6.58;100.00;94447.97;5092733;28;19930;-55
2022/12/07 00:12:21;;;;;;;;;;;;;;;6.67;100.00;94452.34;5092413;28;19912;-55
2022/12/07 00:14:46;;;;;;;;;;;;;;;6.49;100.00;94440.22;5092670;28;19968;-56
2022/12/07 00:17:12;;;;;;;;;;;;;;;6.42;100.00;94432.28;5092689;28;19919;-58
2022/12/07 00:19:37;;;;;;;;;;;;;;;6.42;100.00;94436.56;5092554;28;19924;-56
2022/12/07 00:22:02;;;;;;;;;;;;;;;6.41;100.00;94437.47;5092556;28;20397;-57
2022/12/07 00:24:27;;;;;;;;;;;;;;;6.22;100.00;94425.34;5074287;28;19931;-56
2022/12/07 00:26:53;;;;;;;;;;;;;;;6.19;100.00;94433.16;5092443;28;19961;-55
2022/12/07 00:29:19;;;;;;;;;;;;;;;6.23;100.00;94424.44;5074294;28;19926;-54
2022/12/07 00:31:45;;;;;;;;;;;;;;;6.05;100.00;94418.19;5092249;28;19965;-55
2022/12/07 00:34:15;;;;;;;;;;;;;;;6.06;100.00;94416.47;5092295;28;20332;-55
2022/12/07 00:36:41;;;;;;;;;;;;;;;6.00;100.00;94425.25;5092256;28;19912;-56
2022/12/07 00:39:06;;;;;;;;;;;;;;;6.19;100.00;94437.38;5092482;28;20007;-55
2022/12/07 00:41:31;;;;;;;;;;;;;;;6.19;100.00;94437.38;5092048;28;20462;-56
2022/12/07 00:43:57;;;;;;;;;;;;;;;6.29;100.00;94439.16;5092341;28;20310;-55
2022/12/07 00:46:22;;;;;;;;;;;;;;;6.39;100.00;94436.75;5092149;28;19916;-56
2022/12/07 00:48:48;;;;;;;;;;;;;;;6.58;100.00;94445.44;5092152;28;20006;-56
2022/12/07 00:51:14;;;;;;;;;;;;;;;6.71;100.00;94458.78;5092073;28;20306;-57
2022/12/07 00:53:40;;;;;;;;;;;;;;;6.61;100.00;94437.63;5092383;28;20279;-55
2022/12/07 00:56:16;;;;;;;;;;;;;;;6.57;100.00;94433.72;5091837;28;19923;-57
2022/12/07 00:58:41;;;;;;;;;;;;;;;6.54;100.00;94430.63;5091928;28;20316;-58
2022/12/07 01:01:08;;;;;;;;;;;;;;;6.55;100.00;94417.88;5092130;28;19919;-56
2022/12/07 01:03:33;;;;;;;;;;;;;;;6.61;100.00;94419.16;5092419;28;20353;-54
2022/12/07 01:05:58;;;;;;;;;;;;;;;6.63;100.00;94420.66;5091882;28;19970;-55
2022/12/07 01:08:24;;;;;;;;;;;;;;;6.80;100.00;94437.09;5092032;28;19912;-55
2022/12/07 01:10:57;;;;;;;;;;;;;;;6.94;100.00;94456.28;5091718;28;19920;-55
2022/12/07 01:13:22;;;;;;;;;;;;;;;6.82;100.00;94440.31;5091759;28;20367;-57
2022/12/07 01:15:47;;;;;;;;;;;;;;;7.02;100.00;94456.53;5091753;28;19923;-57
2022/12/07 01:18:13;;;;;;;;;;;;;;;6.83;100.00;94434.31;5091971;28;19912;-55
2022/12/07 01:20:38;;;;;;;;;;;;;;;6.80;100.00;94421.94;5091438;28;19970;-57
2022/12/07 01:23:03;;;;;;;;;;;;;;;6.97;100.00;94444.22;5091860;28;19962;-55
2022/12/07 01:25:29;;;;;;;;;;;;;;;6.96;100.00;94450.22;5090541;28;19959;-56
2022/12/07 01:27:54;;;;;;;;;;;;;;;6.98;100.00;94443.31;5091911;28;20231;-55
2022/12/07 01:30:19;;;;;;;;;;;;;;;6.83;100.00;94425.97;5091390;28;19927;-55
2022/12/07 01:32:44;;;;;;;;;;;;;;;6.86;100.00;94424.00;5091629;28;19912;-55
2022/12/07 01:35:10;;;;;;;;;;;;;;;6.75;100.00;94418.94;5091350;28;19920;-56
2022/12/07 01:37:36;;;;;;;;;;;;;;;6.93;100.00;94431.94;5091399;28;19951;-53
2022/12/07 01:40:02;;;;;;;;;;;;;;;6.86;100.00;94430.78;5091451;28;19985;-55
2022/12/07 01:42:28;;;;;;;;;;;;;;;6.72;100.00;94414.94;5091692;28;20010;-55
2022/12/07 01:45:12;;;;;;;;;;;;;;;6.74;100.00;94422.38;5091440;28;19966;-57
2022/12/07 01:47:37;;;;;;;;;;;;;;;6.71;100.00;94432.72;5091573;28;19916;-58
2022/12/07 01:50:03;;;;;;;;;;;;;;;6.82;100.00;94430.22;5091133;28;20446;-59
2022/12/07 01:52:31;;;;;;;;;;;;;;;6.89;100.00;94441.47;5091311;28;20010;-55
2022/12/07 01:54:59;;;;;;;;;;;;;;;6.79;100.00;94413.56;5091117;28;19927;-56
2022/12/07 01:57:25;;;;;;;;;;;;;;;6.93;100.00;94427.69;5091168;28;19930;-57
2022/12/07 01:59:51;;;;;;;;;;;;;;;6.91;100.00;94431.25;5091000;28;19916;-59
2022/12/07 02:02:23;;;;;;;;;;;;;;;6.92;100.00;94421.03;5091446;28;19971;-55
2022/12/07 02:04:48;;;;;;;;;;;;;;;6.86;100.00;94415.63;5091208;28;19920;-57
2022/12/07 02:07:14;;;;;;;;;;;;;;;6.82;100.00;94406.66;5091345;28;20037;-57
2022/12/07 02:09:40;;;;;;;;;;;;;;;6.96;100.00;94424.13;5091075;28;19916;-55
2022/12/07 02:12:06;;;;;;;;;;;;;;;6.90;100.00;94415.28;5090460;28;19981;-55
2022/12/07 02:14:31;;;;;;;;;;;;;;;6.86;100.00;94396.22;5090907;28;19978;-56
2022/12/07 02:16:59;;;;;;;;;;;;;;;6.95;100.00;94412.44;5090879;28;19916;-58
2022/12/07 02:19:24;;;;;;;;;;;;;;;6.79;100.00;94397.59;5091223;28;19926;-56
2022/12/07 02:22:06;;;;;;;;;;;;;;;6.38;100.00;94365.28;5090773;28;20010;-57
2022/12/07 02:24:44;;;;;;;;;;;;;;;6.58;100.00;94382.31;5091169;28;19927;-54
2022/12/07 02:27:41;;;;;;;;;;;;;;;6.76;100.00;94395.31;5098270;22;19952;-56
2022/12/07 02:30:12;;;;;;;;;;;;;;;6.78;100.00;94393.47;5026104;28;19924;-55
2022/12/07 02:32:37;;;;;;;;;;;;;;;6.80;100.00;94394.16;5070662;28;19956;-57
2022/12/07 02:35:08;;;;;;;;;;;;;;;6.85;100.00;94384.50;5070047;28;20310;-57
2022/12/07 02:37:37;;;;;;;;;;;;;;;7.04;100.00;94409.19;5072368;28;19917;-56
2022/12/07 02:40:05;;;;;;;;;;;;;;;6.92;100.00;94388.19;5073280;28;19944;-56
2022/12/07 02:42:34;;;;;;;;;;;;;;;6.81;100.00;94382.34;5073985;28;19983;-56
2022/12/07 02:45:00;;;;;;;;;;;;;;;6.77;100.00;94372.44;5074152;28;19916;-57
2022/12/07 02:47:26;;;;;;;;;;;;;;;6.78;100.00;94373.25;5074042;28;20008;-57
2022/12/07 02:49:52;;;;;;;;;;;;;;;6.14;100.00;94354.44;5073743;28;20014;-55
2022/12/07 02:52:17;;;;;;;;;;;;;;;6.24;100.00;94362.94;5074096;28;20381;-57
2022/12/07 02:54:42;;;;;;;;;;;;;;;6.50;100.00;94374.50;5073806;28;19918;-56
2022/12/07 02:57:18;;;;;;;;;;;;;;;6.55;100.00;94381.72;5073848;28;19920;-55
2022/12/07 03:00:00;;;;;;;;;;;;;;;6.64;100.00;94378.53;5073663;28;20018;-55
2022/12/07 03:02:28;;;;;;;;;;;;;;;6.37;100.00;94362.88;5073114;28;19921;-55
2022/12/07 03:04:54;;;;;;;;;;;;;;;6.39;100.00;94355.97;5073607;28;19919;-54
2022/12/07 03:07:28;;;;;;;;;;;;;;;6.39;100.00;94351.75;5073439;28;19916;-56
2022/12/07 03:10:07;;;;;;;;;;;;;;;6.35;100.00;94350.38;5073639;28;19916;-55
2022/12/07 03:12:38;;;;;;;;;;;;;;;6.24;100.00;94344.50;5073927;28;19920;-55
2022/12/07 03:15:07;;;;;;;;;;;;;;;6.24;100.00;94335.19;5073598;28;19925;-55
2022/12/07 03:17:34;;;;;;;;;;;;;;;6.26;100.00;94338.41;5073284;28;19929;-54
2022/12/07 03:20:01;;;;;;;;;;;;;;;6.38;100.00;94355.16;5073276;28;19912;-56
2022/12/07 03:22:29;;;;;;;;;;;;;;;6.46;100.00;94344.53;5073059;28;20274;-56
2022/12/07 03:24:56;;;;;;;;;;;;;;;6.53;100.00;94351.53;5073130;28;19967;-57
2022/12/07 03:27:45;;;;;;;;;;;;;;;6.55;100.00;94357.28;5073460;28;20011;-54
2022/12/07 03:30:14;;;;;;;;;;;;;;;6.54;100.00;94360.72;5059774;28;19916;-56
2022/12/07 03:32:44;;;;;;;;;;;;;;;6.70;100.00;94373.84;5073163;28;19974;-55
2022/12/07 03:35:10;;;;;;;;;;;;;;;6.61;100.00;94369.44;5073258;28;19920;-56
2022/12/07 03:37:41;;;;;;;;;;;;;;;6.57;100.00;94359.69;5073121;28;19966;-55
2022/12/07 03:40:15;;;;;;;;;;;;;;;6.48;100.00;94352.81;5073044;28;19922;-55
2022/12/07 03:42:41;;;;;;;;;;;;;;;6.22;100.00;94344.59;5073122;28;20340;-55
2022/12/07 03:45:07;;;;;;;;;;;;;;;5.96;100.00;94348.19;5072775;28;20344;-57
2022/12/07 03:47:50;;;;;;;;;;;;;;;5.96;100.00;94339.84;5072207;28;19917;-55
2022/12/07 03:50:27;;;;;;;;;;;;;;;6.18;100.00;94342.41;5073071;28;19928;-56
2022/12/07 03:52:56;;;;;;;;;;;;;;;6.31;100.00;94354.03;5072838;28;19995;-55
2022/12/07 03:55:28;;;;;;;;;;;;;;;6.41;100.00;94352.44;5054811;28;19924;-57
2022/12/07 03:57:56;;;;;;;;;;;;;;;6.40;100.00;94348.28;5072856;28;19912;-56
2022/12/07 04:00:21;;;;;;;;;;;;;;;6.45;100.00;94347.97;5072552;28;19921;-56
2022/12/07 04:02:47;;;;;;;;;;;;;;;6.37;100.00;94346.00;5072823;28;19912;-55
2022/12/07 04:05:12;;;;;;;;;;;;;;;6.48;100.00;94346.03;5072668;28;19921;-56
2022/12/07 04:07:38;;;;;;;;;;;;;;;6.52;100.00;94357.53;5072773;28;19916;-55
2022/12/07 04:10:03;;;;;;;;;;;;;;;6.48;100.00;94350.28;5072696;28;19925;-56
2022/12/07 04:12:28;;;;;;;;;;;;;;;6.53;100.00;94355.78;5072354;28;20006;-56
2022/12/07 04:14:54;;;;;;;;;;;;;;;6.56;100.00;94353.84;5072378;28;19919;-57
2022/12/07 04:17:19;;;;;;;;;;;;;;;6.51;100.00;94357.59;5072400;28;19963;-57
2022/12/07 04:19:44;;;;;;;;;;;;;;;6.52;100.00;94349.13;5072140;28;19920;-54
2022/12/07 04:22:09;;;;;;;;;;;;;;;6.64;100.00;94364.19;5072327;28;19951;-54
2022/12/07 04:24:35;;;;;;;;;;;;;;;6.62;100.00;94363.50;5072517;28;19962;-55
2022/12/07 04:27:00;;;;;;;;;;;;;;;6.52;100.00;94356.72;5072443;28;19955;-54
2022/12/07 04:29:26;;;;;;;;;;;;;;;6.35;100.00;94339.47;5072297;28;19912;-54
2022/12/07 04:31:52;;;;;;;;;;;;;;;6.40;100.00;94343.25;5072062;28;19921;-57
2022/12/07 04:34:18;;;;;;;;;;;;;;;6.42;100.00;94341.41;5054241;28;19919;-57
2022/12/07 04:36:43;;;;;;;;;;;;;;;6.32;100.00;94343.00;5072409;28;19993;-55
2022/12/07 04:39:17;;;;;;;;;;;;;;;6.34;100.00;94338.66;5072021;28;19916;-58
2022/12/07 04:41:42;;;;;;;;;;;;;;;6.37;100.00;94348.53;5072523;28;19921;-55
2022/12/07 04:44:08;;;;;;;;;;;;;;;6.36;100.00;94354.47;5072069;28;19923;-56
2022/12/07 04:46:33;;;;;;;;;;;;;;;6.40;100.00;94363.44;5072057;28;19923;-55
2022/12/07 04:48:58;;;;;;;;;;;;;;;6.25;100.00;94351.94;5071979;28;19938;-57
2022/12/07 04:51:25;;;;;;;;;;;;;;;6.25;100.00;94346.09;5071765;28;19916;-57
2022/12/07 04:53:51;;;;;;;;;;;;;;;6.12;100.00;94347.91;5071804;28;20007;-57
2022/12/07 04:56:16;;;;;;;;;;;;;;;6.15;100.00;94343.44;5072186;28;19985;-56
2022/12/07 04:58:42;;;;;;;;;;;;;;;6.12;100.00;94345.38;5070720;28;19920;-56
2022/12/07 05:01:08;;;;;;;;;;;;;;;6.21;100.00;94350.56;5071626;28;19916;-56
2022/12/07 05:03:33;;;;;;;;;;;;;;;6.26;100.00;94351.03;5052227;28;19923;-56
2022/12/07 05:05:58;;;;;;;;;;;;;;;6.29;100.00;94355.03;5070018;28;20019;-57
2022/12/07 05:08:24;;;;;;;;;;;;;;;6.32;100.00;94355.63;5071284;28;19966;-57
2022/12/07 05:10:49;;;;;;;;;;;;;;;6.36;100.00;94371.38;5071516;28;19916;-56
2022/12/07 05:13:15;;;;;;;;;;;;;;;6.37;100.00;94365.38;5053710;28;19966;-56
2022/12/07 05:15:40;;;;;;;;;;;;;;;5.74;100.00;94343.84;5071459;28;19916;-55
2022/12/07 05:18:06;;;;;;;;;;;;;;;5.74;100.00;94343.03;5071811;28;19924;-57
2022/12/07 05:20:31;;;;;;;;;;;;;;;5.60;100.00;94350.78;5071525;28;19924;-55
2022/12/07 05:22:58;;;;;;;;;;;;;;;5.60;100.00;94349.06;5071619;28;19916;-55
2022/12/07 05:25:23;;;;;;;;;;;;;;;6.01;100.00;94353.72;5071233;28;20544;-56
2022/12/07 05:27:48;;;;;;;;;;;;;;;6.40;100.00;94352.56;5071318;28;20012;-57
2022/12/07 05:30:14;;;;;;;;;;;;;;;6.45;100.00;94365.63;5071458;28;19916;-57
2022/12/07 05:32:40;;;;;;;;;;;;;;;6.49;100.00;94380.44;5071221;28;20393;-57
2022/12/07 05:35:06;;;;;;;;;;;;;;;6.43;100.00;94380.91;5071169;28;19916;-56
2022/12/07 05:37:31;;;;;;;;;;;;;;;6.16;100.00;94372.78;5071186;28;19916;-55
2022/12/07 05:39:56;;;;;;;;;;;;;;;6.20;100.00;94370.88;5070924;28;19916;-55
2022/12/07 05:42:22;;;;;;;;;;;;;;;6.48;100.00;94386.44;5071271;28;19970;-55
2022/12/07 05:44:47;;;;;;;;;;;;;;;6.35;100.00;94365.50;5071194;28;19917;-56
2022/12/07 05:47:13;;;;;;;;;;;;;;;6.31;100.00;94365.84;5070995;28;19917;-55
2022/12/07 05:49:39;;;;;;;;;;;;;;;6.28;100.00;94366.84;5070919;28;20370;-55
2022/12/07 05:52:04;;;;;;;;;;;;;;;6.11;100.00;94359.72;5071087;28;19927;-57
2022/12/07 05:54:29;;;;;;;;;;;;;;;6.03;100.00;94344.31;5071050;28;19940;-57
2022/12/07 05:56:55;;;;;;;;;;;;;;;6.33;100.00;94366.53;5071134;28;19921;-55
2022/12/07 05:59:23;;;;;;;;;;;;;;;6.22;100.00;94357.19;5070731;28;19958;-57
2022/12/07 06:01:59;;;;;;;;;;;;;;;5.99;100.00;94342.94;5070980;28;20012;-54
2022/12/07 06:04:25;;;;;;;;;;;;;;;5.81;100.00;94337.47;5070430;28;19951;-55
2022/12/07 06:06:51;;;;;;;;;;;;;;;5.99;100.00;94353.03;5069016;28;19920;-55
2022/12/07 06:09:18;;;;;;;;;;;;;;;6.05;100.00;94350.06;5068690;28;20562;-56
2022/12/07 06:14:27;;;;;;;;;;;;;;;6.07;100.00;94342.38;5074662;28;19962;-55
2022/12/07 06:16:53;;;;;;;;;;;;;;;6.02;100.00;94344.44;5074733;28;19963;-56
2022/12/07 06:19:18;;;;;;;;;;;;;;;6.11;100.00;94349.63;5074391;28;19916;-55
2022/12/07 06:21:43;;;;;;;;;;;;;;;6.20;100.00;94360.78;5074508;28;20038;-57
2022/12/07 06:24:10;;;;;;;;;;;;;;;6.23;100.00;94365.59;5074220;28;19916;-56
2022/12/07 06:26:35;;;;;;;;;;;;;;;6.33;100.00;94369.88;5074720;28;19920;-56
2022/12/07 06:29:01;;;;;;;;;;;;;;;6.36;100.00;94372.16;5055978;28;19916;-57
2022/12/07 06:31:26;;;;;;;;;;;;;;;6.41;100.00;94367.59;5074484;28;20007;-57
2022/12/07 06:33:51;;;;;;;;;;;;;;;6.47;100.00;94384.00;5074018;28;19947;-57
2022/12/07 06:36:17;;;;;;;;;;;;;;;6.74;100.00;94392.09;5073933;28;19924;-56
2022/12/07 06:38:42;;;;;;;;;;;;;;;6.74;100.00;94399.66;5056050;28;19966;-55
2022/12/07 06:41:08;;;;;;;;;;;;;;;6.66;100.00;94387.59;5073952;28;19947;-55
2022/12/07 06:43:33;;;;;;;;;;;;;;;6.62;100.00;94376.13;5074178;28;19917;-57
2022/12/07 06:45:59;;;;;;;;;;;;;;;6.75;100.00;94379.34;5073753;28;19966;-58
2022/12/07 06:48:24;;;;;;;;;;;;;;;6.76;100.00;94386.00;5074023;28;19916;-57
2022/12/07 06:50:49;;;;;;;;;;;;;;;6.59;100.00;94378.84;5074114;28;19946;-55
2022/12/07 06:53:14;;;;;;;;;;;;;;;6.39;100.00;94371.13;5073671;28;19966;-55
2022/12/07 06:55:40;;;;;;;;;;;;;;;6.25;100.00;94351.94;5073991;28;19916;-57
2022/12/07 06:58:05;;;;;;;;;;;;;;;6.30;100.00;94359.97;5073801;28;20436;-57
2022/12/07 07:00:30;;;;;;;;;;;;;;;6.24;100.00;94370.50;5073943;28;19917;-57
2022/12/07 07:02:56;;;;;;;;;;;;;;;5.70;100.00;94351.72;5055728;28;19959;-56
2022/12/07 07:05:21;;;;;;;;;;;;;;;5.72;100.00;94354.94;5073758;28;20293;-55
2022/12/07 07:07:47;;;;;;;;;;;;;;;6.06;100.00;94368.53;5073822;28;20310;-56
2022/12/07 07:10:13;;;;;;;;;;;;;;;6.07;100.00;94368.41;5073488;28;19916;-56
2022/12/07 07:12:38;;;;;;;;;;;;;;;6.40;100.00;94375.28;5073446;28;19966;-56
2022/12/07 07:15:03;;;;;;;;;;;;;;;6.65;100.00;94391.03;5055798;28;19924;-59
2022/12/07 07:17:29;;;;;;;;;;;;;;;6.78;100.00;94394.28;5073450;28;20007;-57
2022/12/07 07:19:54;;;;;;;;;;;;;;;6.62;100.00;94405.63;5071683;28;19920;-57
2022/12/07 07:22:19;;;;;;;;;;;;;;;6.70;100.00;94408.38;5070213;28;20009;-55
2022/12/07 07:24:45;;;;;;;;;;;;;;;6.58;100.00;94382.31;5071035;28;20325;-58
2022/12/07 07:27:10;;;;;;;;;;;;;;;6.38;100.00;94380.41;5073247;28;19959;-56
2022/12/07 07:29:35;;;;;;;;;;;;;;;6.56;100.00;94375.75;5073136;28;19913;-56
2022/12/07 07:32:01;;;;;;;;;;;;;;;6.81;100.00;94397.50;5073032;28;19920;-57
2022/12/07 07:34:26;;;;;;;;;;;;;;;6.58;100.00;94389.91;5073175;28;19919;-55
2022/12/07 07:36:51;;;;;;;;;;;;;;;6.45;100.00;94386.63;5073560;28;19931;-55
2022/12/07 07:39:17;;;;;;;;;;;;;;;6.72;100.00;94384.63;5073113;28;19989;-56
2022/12/07 07:41:42;;;;;;;;;;;;;;;6.83;100.00;94408.28;5073255;28;20368;-56
2022/12/07 07:44:07;;;;;;;;;;;;;;;7.01;100.00;94410.22;5073192;28;19917;-57
2022/12/07 07:46:33;;;;;;;;;;;;;;;7.06;100.00;94417.47;5073020;28;20461;-58
2022/12/07 07:48:58;;;;;;;;;;;;;;;7.15;100.00;94421.84;5072796;28;19917;-56
2022/12/07 07:51:23;;;;;;;;;;;;;;;7.36;100.00;94415.16;5072486;28;19916;-56
2022/12/07 07:53:48;;;;;;;;;;;;;;;7.53;100.00;94427.34;5070650;28;20326;-55
2022/12/07 07:56:14;;;;;;;;;;;;;;;7.82;100.00;94438.53;5070871;28;19917;-56
2022/12/07 07:58:39;;;;;;;;;;;;;;;8.04;100.00;94455.41;5071821;28;19916;-57
2022/12/07 08:01:05;;;;;;;;;;;;;;;8.30;100.00;94447.38;5072925;28;20006;-57
2022/12/07 08:03:30;;;;;;;;;;;;;;;8.24;100.00;94450.38;5072620;28;19916;-59
2022/12/07 08:05:56;;;;;;;;;;;;;;;8.50;100.00;94463.53;5054652;28;19975;-57
2022/12/07 08:08:21;;;;;;;;;;;;;;;8.65;100.00;94469.91;5072858;28;19916;-54
2022/12/07 08:10:52;;;;;;;;;;;;;;;8.78;100.00;94480.69;5072672;28;19970;-57
2022/12/07 08:13:18;;;;;;;;;;;;;;;8.54;100.00;94474.22;5072889;28;20007;-58
2022/12/07 08:15:49;;;;;;;;;;;;;;;8.34;100.00;94453.03;5072483;28;19948;-58
2022/12/07 08:18:15;;;;;;;;;;;;;;;8.44;100.00;94464.81;5072082;28;19916;-56
2022/12/07 08:20:41;;;;;;;;;;;;;;;8.27;100.00;94441.75;5070974;28;19926;-55
2022/12/07 08:23:07;;;;;;;;;;;;;;;8.30;100.00;94457.50;5070872;28;19924;-57
2022/12/07 08:25:32;;;;;;;32.40;19.33;;;;;;;8.23;100.00;94460.63;5071129;28;20525;-57
2022/12/07 08:27:58;;;;;;;31.70;17.40;;;;;;;8.16;100.00;94439.25;5071891;28;20183;-56
2022/12/07 08:30:23;;;;;;;33.70;18.60;;;;;;;8.23;100.00;94441.19;5071912;28;20746;-54
2022/12/07 08:35:34;;;;;;;37.40;17.37;;;;;;;8.58;100.00;94440.94;5071992;28;20255;-56
2022/12/07 08:38:01;;;;;;;43.93;18.50;;;;;;;8.26;100.00;94442.69;5053818;28;20663;-58
2022/12/07 08:40:27;;;;;;;36.57;18.07;;;;;;;8.01;100.00;94423.53;5071945;28;20209;-55
2022/12/07 08:42:53;;;;;;;33.73;18.30;;;;;;;8.06;100.00;94413.06;5053469;28;20203;-58
2022/12/07 08:45:19;;;;;;;35.00;18.10;;;;;;;8.11;100.00;94406.69;5070890;28;20655;-55
2022/12/07 08:47:53;;;;;;;33.07;17.40;;;;;;;8.04;100.00;94397.19;5069769;28;20189;-54
2022/12/07 08:50:20;;;;;;;36.80;18.90;;;;;;;8.16;100.00;94419.00;5070314;28;20659;-55
2022/12/07 08:52:50;;;;;;;43.03;20.00;;;;;;;8.21;100.00;94415.19;5071419;28;20176;-55
2022/12/07 08:55:16;;;;;;;32.93;19.20;;;;;;;8.21;100.00;94411.81;5071490;28;20268;-56
2022/12/07 08:57:42;;;;;;;33.03;18.57;;;;;;;8.09;100.00;94400.16;5071129;28;20679;-55
2022/12/07 09:00:09;;;;;;;35.20;19.63;;;;;;;8.25;100.00;94403.09;5071370;28;20203;-55
2022/12/07 09:02:34;;;;;;;36.93;19.70;;;;;;;8.07;100.00;94384.28;5071419;28;20212;-55
2022/12/07 09:05:00;;;;;;;36.20;19.37;;;;;;;7.89;100.00;94363.75;5071139;28;20617;-54
2022/12/07 09:07:26;;;;;;;37.17;20.47;;;;;;;7.99;100.00;94389.94;5053052;28;20307;-55
2022/12/07 09:09:51;;;;;;;40.70;21.07;;;;;;;7.69;100.00;94366.25;5069817;28;20278;-55
2022/12/07 09:12:16;;;;;;;35.47;19.43;;;;;;;7.56;100.00;94346.16;5071243;28;20209;-55
2022/12/07 09:14:42;;;;;;;32.57;18.10;;;;;;;7.78;100.00;94353.66;5070927;28;20231;-54
2022/12/07 09:17:09;;;;;;;39.87;19.30;;;;;;;7.81;100.00;94365.28;5071108;28;20212;-57
2022/12/07 09:19:35;;;;;;;47.10;19.40;;;;;;;7.78;100.00;94361.25;5070988;28;20205;-55
2022/12/07 09:22:01;;;;;;;36.60;18.23;;;;;;;8.10;100.00;94356.97;5071059;28;20205;-55
2022/12/07 09:24:26;;;;;;;33.50;19.13;;;;;;;8.11;100.00;94371.25;5070950;28;20213;-57
2022/12/07 09:26:52;;;;;;;34.67;18.83;;;;;;;8.17;100.00;94372.50;5071184;28;20216;-57
2022/12/07 09:29:17;;;;;;;34.97;18.10;;;;;;;8.35;100.00;94392.13;5071074;28;20280;-56
2022/12/07 09:31:42;;;;;;;33.90;19.87;;;;;;;7.93;100.00;94342.34;5071194;28;20197;-56
2022/12/07 09:34:08;;;;;;;39.83;19.60;;;;;;;7.70;100.00;94323.09;5070984;28;20209;-57
2022/12/07 09:36:34;;;;;;;44.20;19.47;;;;;;;7.86;100.00;94333.63;5071023;28;20200;-57
2022/12/07 09:38:59;;;;;;;35.73;19.47;;;;;;;8.06;100.00;94350.56;5070831;28;20674;-55
2022/12/07 09:41:27;;;;;;;33.23;18.93;;;;;;;8.30;100.00;94368.88;5070834;28;20189;-55
2022/12/07 09:44:04;;;;;;;38.07;18.27;;;;;;;8.15;100.00;94324.53;5052609;28;20254;-56
2022/12/07 09:46:35;;;;;;;41.47;20.37;;;;;;;8.42;100.00;94342.56;5073287;28;20213;-57
2022/12/07 09:49:01;;;;;;;43.77;20.07;;;;;;;8.39;100.00;94354.69;5074376;28;20271;-57
2022/12/07 09:51:26;;;;;;;37.93;20.03;;;;;;;8.33;100.00;94323.06;5074291;28;20677;-56
2022/12/07 09:53:54;;;;;;;49.50;20.30;;;;;;;8.35;100.00;94344.00;5074189;28;20191;-56
2022/12/07 09:56:21;;;;;;;39.90;18.97;;;;;;;8.30;100.00;94338.50;5074204;28;20706;-55
2022/12/07 09:58:48;;;;;;;32.60;19.27;;;;;;;8.59;100.00;94347.97;5055892;28;20246;-56
2022/12/07 10:01:21;;;;;;;37.97;20.37;;;;;;;8.80;100.00;94366.50;5074045;28;20253;-57
2022/12/07 10:03:54;;;;;;;40.10;19.57;;;;;;;8.87;100.00;94368.41;5074333;28;20607;-57
2022/12/07 10:06:19;;;;;;;36.97;18.43;;;;;;;9.06;100.00;94376.09;5073785;28;20205;-56
2022/12/07 10:08:45;;;;;;;35.87;18.83;;;;;;;9.17;100.00;94390.44;5073884;28;20210;-56
2022/12/07 10:11:11;;;;;;;39.07;19.03;;;;;;;9.19;100.00;94393.63;5074281;28;20646;-56
2022/12/07 10:13:46;;;;;;;35.10;19.30;;;;;;;9.18;100.00;94397.09;5074041;28;20244;-60
2022/12/07 10:16:29;;;;;;;35.70;18.20;;;;;;;9.05;100.00;94381.31;5074165;28;20679;-54
2022/12/07 10:18:55;;;;;;;38.03;18.73;;;;;;;9.15;100.00;94362.63;5073678;28;20605;-57
2022/12/07 10:21:26;;;;;;;33.10;17.67;;;;;;;9.27;100.00;94371.75;5074054;28;20189;-56
2022/12/07 10:24:02;;;;;;;34.97;17.50;;;;;;;9.49;100.00;94408.81;5073794;28;20189;-56
2022/12/07 10:26:48;;;;;;;35.03;17.87;;;;;;;9.42;100.00;94397.56;5073680;28;20212;-56
2022/12/07 10:29:16;;;;;;;34.97;17.93;;;;;;;9.51;100.00;94379.03;5073526;28;20262;-57
2022/12/07 10:31:43;;;;;;;37.80;17.60;;;;;;;9.79;100.00;94383.38;5073517;28;20189;-57
2022/12/07 10:34:36;;;;;;;38.53;17.33;;;;;;;10.26;100.00;94411.50;5073252;28;20200;-58
2022/12/07 10:37:17;;;;;;;34.70;16.77;;;;;;;10.55;100.00;94463.09;5070698;28;20646;-57
2022/12/07 10:39:46;;;;;;;30.50;15.10;;;;;;;10.36;100.00;94432.63;5073798;28;20292;-54
2022/12/07 10:42:31;;;;;;;27.03;14.53;;;;;;;10.10;100.00;94417.91;5073498;28;20196;-58
2022/12/07 10:45:11;;;;;;;31.43;15.53;;;;;;;10.13;100.00;94411.75;5073490;28;20569;-57
2022/12/07 10:47:42;;;;;;;33.20;16.20;;;;;;;10.21;100.00;94408.53;5073273;28;20220;-57
2022/12/07 10:50:35;;;;;;;31.53;16.97;;;;;;;10.32;100.00;94399.06;5073171;28;20236;-57
2022/12/07 10:53:25;;;;;;;32.23;16.77;;;;;;;10.31;100.00;94397.44;5073355;28;20219;-55
2022/12/07 10:56:20;;;;;;;25.80;15.73;;;;;;;10.41;100.00;94423.66;5073564;28;20213;-57
2022/12/07 10:59:13;;;;;;;30.43;14.50;;;;;;;10.19;100.00;94402.78;5073314;28;20185;-57
2022/12/07 11:01:43;;;;;;;29.53;16.07;;;;;;;9.99;100.00;94368.94;5073742;28;20189;-55
2022/12/07 11:04:20;;;;;;;33.50;15.87;;;;;;;9.96;100.00;94353.97;5073291;28;20201;-57
2022/12/07 11:07:01;;;;;;;29.13;16.57;;;;;;;9.98;100.00;94314.81;5073341;28;20212;-55
2022/12/07 11:09:58;;;;;;;32.90;17.67;;;;;;;10.04;100.00;94316.00;5073191;28;20756;-57
2022/12/07 11:12:45;;;;;;;34.47;15.77;;;;;;;10.05;100.00;94318.44;5055039;28;20287;-58
2022/12/07 11:15:21;;;;;;;33.47;15.83;;;;;;;10.16;100.00;94319.25;5072890;28;20726;-57
2022/12/07 11:18:05;;;;;;;25.80;15.13;;;;;;;10.22;100.00;94328.88;5072820;28;20658;-55
2022/12/07 11:20:49;;;;;;;27.27;14.03;;;;;;;10.25;100.00;94351.44;5054647;28;20220;-57
2022/12/07 11:23:32;;;;;;;32.57;15.10;;;;;;;10.09;100.00;94351.97;5073023;28;20225;-55
2022/12/07 11:26:28;;;;;;;33.77;15.40;;;;;;;10.05;100.00;94338.75;5073066;28;20311;-57
2022/12/07 11:29:00;;;;;;;28.23;15.40;;;;;;;10.04;100.00;94337.13;5072998;28;20533;-55
2022/12/07 11:31:51;;;;;;;31.50;15.97;;;;;;;10.24;100.00;94352.41;5073048;28;20193;-56
2022/12/07 11:34:19;;;;;;;30.73;13.90;;;;;;;10.12;100.00;94323.78;5072655;28;20766;-57
2022/12/07 11:36:49;;;;;;;36.20;15.47;;;;;;;9.79;100.00;94281.84;5072644;28;20200;-57
2022/12/07 11:39:52;;;;;;;30.47;15.30;;;;;;;10.01;100.00;94304.41;5072459;28;20244;-55
2022/12/07 11:42:33;;;;;;;30.67;15.80;;;;;;;10.03;100.00;94315.22;4991253;28;20298;-57
2022/12/07 11:45:16;;;;;;;30.63;16.60;;;;;;;9.88;100.00;94295.44;5065999;28;20229;-57
2022/12/07 11:47:55;;;;;;;37.03;16.17;;;;;;;9.74;100.00;94266.19;5072710;28;20189;-55
2022/12/07 11:50:26;;;;;;;28.97;15.73;;;;;;;9.88;100.00;94268.31;5072628;28;20217;-54
2022/12/07 11:53:05;;;;;;;34.43;17.37;;;;;;;10.04;100.00;94308.38;5072494;28;20208;-57
2022/12/07 11:55:51;;;;;;;32.30;16.43;;;;;;;9.89;100.00;94289.44;5072564;28;20286;-58
2022/12/07 11:58:34;;;;;;;28.73;15.07;;;;;;;9.88;100.00;94263.25;5072305;28;20208;-57
2022/12/07 12:01:38;;;;;;;32.63;15.90;;;;;;;10.05;100.00;94282.88;5072385;28;20257;-55
2022/12/07 12:04:09;;;;;;;29.73;15.77;;;;;;;10.13;100.00;94280.50;5072364;28;20204;-57
2022/12/07 12:06:36;;;;;;;29.67;14.27;;;;;;;10.24;100.00;94288.91;5072563;28;20205;-56
2022/12/07 12:09:26;;;;;;;27.93;13.20;;;;;;;10.14;100.00;94269.38;5071832;28;20189;-56
2022/12/07 12:12:10;;;;;;;31.27;15.20;;;;;;;10.27;100.00;94284.34;5072415;28;20193;-56
2022/12/07 12:14:57;;;;;;;37.00;15.03;;;;;;;10.43;100.00;94311.72;5072012;28;20212;-58
2022/12/07 12:17:45;;;;;;;24.10;14.23;;;;;;;10.43;100.00;94321.88;5072004;28;20236;-57
2022/12/07 12:20:19;;;;;;;24.53;14.53;;;;;;;10.32;100.00;94289.81;5072069;28;20709;-56
2022/12/07 12:22:50;;;;;;;25.03;14.13;;;;;;;10.37;100.00;94307.16;5071971;28;20803;-58
2022/12/07 12:25:27;;;;;;;27.80;14.80;;;;;;;10.56;100.00;94272.38;5071931;28;20212;-56
2022/12/07 12:27:57;;;;;;;26.30;13.40;;;;;;;10.81;100.00;94309.03;5053941;28;20216;-59
2022/12/07 12:30:34;;;;;;;26.43;15.10;;;;;;;11.18;100.00;94332.72;5071923;28;20587;-56